TimeEST,TemperatureF,Dew PointF,Humidity,Sea Level PressureIn,VisibilityMPH,Wind Direction,Wind SpeedMPH,Gust SpeedMPH,PrecipitationIn,Events,Conditions,WindDirDegrees,DateUTC
12:20 AM,42.8,30.2,61,30.18,10.0,SSW,6.9,-,N/A,,Clear,210,2013-01-20 05:20:00
12:37 AM,41.0,30.2,65,30.17,10.0,SSW,6.9,-,N/A,,Clear,210,2013-01-20 05:37:00
12:57 AM,42.8,30.2,61,30.17,10.0,SSW,6.9,-,N/A,,Clear,210,2013-01-20 05:57:00
1:17 AM,41.0,30.2,65,30.16,10.0,SSW,5.8,-,N/A,,Clear,200,2013-01-20 06:17:00
1:57 AM,42.8,28.4,57,30.15,10.0,SSW,6.9,-,N/A,,Clear,200,2013-01-20 06:57:00
2:17 AM,42.8,28.4,57,30.15,10.0,SSW,5.8,-,N/A,,Clear,210,2013-01-20 07:17:00
2:37 AM,41.0,28.4,61,30.14,10.0,SSW,5.8,-,N/A,,Clear,200,2013-01-20 07:37:00
2:57 AM,42.8,28.4,57,30.14,10.0,SSW,6.9,-,N/A,,Clear,200,2013-01-20 07:57:00
3:17 AM,42.8,28.4,57,30.14,10.0,SSW,6.9,-,N/A,,Clear,200,2013-01-20 08:17:00
3:37 AM,42.8,28.4,57,30.14,10.0,SSW,5.8,-,N/A,,Clear,210,2013-01-20 08:37:00
3:57 AM,42.8,28.4,57,30.13,10.0,SSW,6.9,-,N/A,,Clear,210,2013-01-20 08:57:00
4:17 AM,41.0,28.4,61,30.12,10.0,South,8.1,-,N/A,,Clear,190,2013-01-20 09:17:00
4:37 AM,41.0,28.4,61,30.12,10.0,SSW,4.6,-,N/A,,Clear,200,2013-01-20 09:37:00
4:57 AM,39.2,28.4,65,30.12,10.0,SSW,4.6,-,N/A,,Clear,200,2013-01-20 09:57:00
5:17 AM,39.2,28.4,65,30.12,10.0,SSW,5.8,-,N/A,,Clear,210,2013-01-20 10:17:00
5:37 AM,39.2,28.4,65,30.11,10.0,SSW,4.6,-,N/A,,Clear,200,2013-01-20 10:37:00
5:57 AM,37.4,28.4,70,30.11,10.0,Calm,Calm,-,N/A,,Clear,0,2013-01-20 10:57:00
6:37 AM,35.6,30.2,81,30.12,10.0,South,3.5,-,N/A,,Clear,170,2013-01-20 11:37:00
7:17 AM,35.6,28.4,75,30.12,10.0,Calm,Calm,-,N/A,,Clear,0,2013-01-20 12:17:00
7:37 AM,35.6,28.4,75,30.12,10.0,South,3.5,-,N/A,,Clear,190,2013-01-20 12:37:00
8:17 AM,35.6,28.4,75,30.13,10.0,Calm,Calm,-,N/A,,Clear,0,2013-01-20 13:17:00
8:37 AM,39.2,28.4,65,30.14,10.0,SW,3.5,-,N/A,,Clear,220,2013-01-20 13:37:00
8:57 AM,41.0,28.4,61,30.14,10.0,SW,4.6,-,N/A,,Clear,220,2013-01-20 13:57:00
9:37 AM,42.8,28.4,57,30.14,10.0,SSW,5.8,-,N/A,,Clear,210,2013-01-20 14:37:00
9:57 AM,44.6,28.4,53,30.14,10.0,West,3.5,-,N/A,,Clear,260,2013-01-20 14:57:00
10:17 AM,44.6,28.4,53,30.14,10.0,West,4.6,-,N/A,,Clear,280,2013-01-20 15:17:00
10:37 AM,46.4,28.4,50,30.14,10.0,WSW,5.8,-,N/A,,Clear,250,2013-01-20 15:37:00
10:57 AM,46.4,30.2,53,30.13,10.0,WSW,5.8,-,N/A,,Clear,240,2013-01-20 15:57:00
11:17 AM,50.0,32.0,50,30.12,10.0,SW,4.6,-,N/A,,Clear,230,2013-01-20 16:17:00
11:37 AM,51.8,32.0,47,30.11,10.0,SW,5.8,-,N/A,,Clear,230,2013-01-20 16:37:00
11:57 AM,51.8,30.2,44,30.10,10.0,South,5.8,-,N/A,,Clear,190,2013-01-20 16:57:00
12:17 PM,55.4,30.2,38,30.08,10.0,SSW,6.9,-,N/A,,Clear,200,2013-01-20 17:17:00
12:37 PM,57.2,30.2,36,30.07,10.0,SW,5.8,-,N/A,,Clear,230,2013-01-20 17:37:00
12:57 PM,57.2,30.2,36,30.06,10.0,WSW,5.8,-,N/A,,Clear,250,2013-01-20 17:57:00
1:17 PM,60.8,30.2,31,30.05,10.0,WSW,9.2,-,N/A,,Clear,240,2013-01-20 18:17:00
1:37 PM,60.8,30.2,31,30.04,10.0,WSW,9.2,17.3,N/A,,Clear,240,2013-01-20 18:37:00
2:20 PM,60.8,30.2,31,30.04,10.0,WSW,12.7,16.1,N/A,,Clear,250,2013-01-20 19:20:00
2:37 PM,60.8,30.2,31,30.04,10.0,West,8.1,-,N/A,,Clear,260,2013-01-20 19:37:00
2:59 PM,60.8,30.2,31,30.03,10.0,West,5.8,-,N/A,,Clear,270,2013-01-20 19:59:00
3:17 PM,60.8,28.4,29,30.04,10.0,West,10.4,-,N/A,,Clear,270,2013-01-20 20:17:00
3:37 PM,62.6,28.4,27,30.04,10.0,WNW,5.8,-,N/A,,Clear,290,2013-01-20 20:37:00
3:57 PM,60.8,28.4,29,30.03,10.0,WSW,11.5,18.4,N/A,,Clear,250,2013-01-20 20:57:00
4:17 PM,60.8,28.4,29,30.04,10.0,West,6.9,16.1,N/A,,Clear,270,2013-01-20 21:17:00
4:37 PM,60.8,28.4,29,30.04,10.0,NW,5.8,-,N/A,,Clear,310,2013-01-20 21:37:00
4:59 PM,60.8,28.4,29,30.04,10.0,West,5.8,-,N/A,,Clear,270,2013-01-20 21:59:00
5:17 PM,59.0,28.4,31,30.04,10.0,West,3.5,-,N/A,,Clear,280,2013-01-20 22:17:00
5:37 PM,57.2,30.2,36,30.05,10.0,Calm,Calm,-,N/A,,Clear,0,2013-01-20 22:37:00
5:57 PM,51.8,35.6,54,30.06,10.0,Calm,Calm,-,N/A,,Clear,0,2013-01-20 22:57:00
6:18 PM,50.0,33.8,54,30.07,10.0,Calm,Calm,-,N/A,,Clear,0,2013-01-20 23:18:00
6:37 PM,48.2,33.8,58,30.08,10.0,Calm,Calm,-,N/A,,Clear,0,2013-01-20 23:37:00
6:57 PM,46.4,33.8,62,30.09,10.0,Calm,Calm,-,N/A,,Clear,0,2013-01-20 23:57:00
7:17 PM,46.4,35.6,66,30.09,10.0,Calm,Calm,-,N/A,,Clear,0,2013-01-21 00:17:00
7:37 PM,46.4,32.0,57,30.10,10.0,Calm,Calm,-,N/A,,Clear,0,2013-01-21 00:37:00
7:57 PM,46.4,30.2,53,30.10,10.0,Calm,Calm,-,N/A,,Clear,0,2013-01-21 00:57:00
8:17 PM,48.2,28.4,46,30.10,10.0,NNW,3.5,-,N/A,,Clear,330,2013-01-21 01:17:00
8:37 PM,50.0,26.6,40,30.11,10.0,NNW,6.9,-,N/A,,Clear,340,2013-01-21 01:37:00
8:59 PM,46.4,28.4,50,30.11,10.0,Calm,Calm,-,N/A,,Clear,0,2013-01-21 01:59:00
9:17 PM,44.6,28.4,53,30.11,10.0,Calm,Calm,-,N/A,,Clear,0,2013-01-21 02:17:00
9:37 PM,42.8,28.4,57,30.11,10.0,Calm,Calm,-,N/A,,Clear,0,2013-01-21 02:37:00
9:59 PM,39.2,28.4,65,30.12,10.0,Calm,Calm,-,N/A,,Clear,0,2013-01-21 02:59:00
10:17 PM,41.0,30.2,65,30.12,10.0,Calm,Calm,-,N/A,,Clear,0,2013-01-21 03:17:00
10:57 PM,39.2,28.4,65,30.12,10.0,Calm,Calm,-,N/A,,Clear,0,2013-01-21 03:57:00
11:17 PM,37.4,28.4,70,30.12,10.0,Calm,Calm,-,N/A,,Clear,0,2013-01-21 04:17:00
11:37 PM,37.4,28.4,70,30.12,10.0,Calm,Calm,-,N/A,,Clear,0,2013-01-21 04:37:00
11:57 PM,35.6,28.4,75,30.12,10.0,Calm,Calm,-,N/A,,Clear,0,2013-01-21 04:57:00